sensor_id;sensor_type;location;lat;lon;timestamp;P1;durP1;ratioP1;P2;durP2;ratioP2
47089;SDS011;32840;52.516;13.294;2024-01-15T00:01:53;17.10;;;9.93;;
47089;SDS011;32840;52.516;13.294;2024-01-15T00:04:39;15.95;;;9.10;;
47089;SDS011;32840;52.516;13.294;2024-01-15T00:07:24;14.32;;;8.90;;
47089;SDS011;32840;52.516;13.294;2024-01-15T00:10:10;15.48;;;8.88;;
47089;SDS011;32840;52.516;13.294;2024-01-15T00:12:55;15.13;;;9.40;;
47089;SDS011;32840;52.516;13.294;2024-01-15T00:15:40;14.70;;;8.95;;
47089;SDS011;32840;52.516;13.294;2024-01-15T00:18:30;10.70;;;6.85;;
47089;SDS011;32840;52.516;13.294;2024-01-15T00:21:15;18.08;;;9.73;;
47089;SDS011;32840;52.516;13.294;2024-01-15T00:24:00;14.60;;;9.43;;
47089;SDS011;32840;52.516;13.294;2024-01-15T00:26:45;16.65;;;9.65;;
47089;SDS011;32840;52.516;13.294;2024-01-15T00:29:30;17.67;;;9.32;;
47089;SDS011;32840;52.516;13.294;2024-01-15T00:32:17;17.35;;;9.15;;
47089;SDS011;32840;52.516;13.294;2024-01-15T00:35:02;14.15;;;8.95;;
47089;SDS011;32840;52.516;13.294;2024-01-15T00:37:47;15.55;;;9.00;;
47089;SDS011;32840;52.516;13.294;2024-01-15T00:40:35;13.15;;;8.35;;
47089;SDS011;32840;52.516;13.294;2024-01-15T00:43:25;16.70;;;9.35;;
47089;SDS011;32840;52.516;13.294;2024-01-15T00:46:13;17.35;;;9.45;;
47089;SDS011;32840;52.516;13.294;2024-01-15T00:48:58;16.77;;;9.63;;
47089;SDS011;32840;52.516;13.294;2024-01-15T00:51:44;16.42;;;9.00;;
47089;SDS011;32840;52.516;13.294;2024-01-15T00:54:29;16.63;;;8.48;;
47089;SDS011;32840;52.516;13.294;2024-01-15T00:57:20;15.23;;;8.55;;
47089;SDS011;32840;52.516;13.294;2024-01-15T01:02:53;15.55;;;9.02;;
47089;SDS011;32840;52.516;13.294;2024-01-15T01:05:38;16.10;;;9.05;;
47089;SDS011;32840;52.516;13.294;2024-01-15T01:08:23;15.60;;;9.00;;
47089;SDS011;32840;52.516;13.294;2024-01-15T01:11:12;17.25;;;8.43;;
47089;SDS011;32840;52.516;13.294;2024-01-15T01:13:58;18.23;;;9.00;;
47089;SDS011;32840;52.516;13.294;2024-01-15T01:16:43;14.77;;;8.32;;
47089;SDS011;32840;52.516;13.294;2024-01-15T01:19:29;14.48;;;9.32;;
47089;SDS011;32840;52.516;13.294;2024-01-15T01:22:14;17.58;;;9.30;;
47089;SDS011;32840;52.516;13.294;2024-01-15T01:24:59;17.13;;;9.88;;
47089;SDS011;32840;52.516;13.294;2024-01-15T01:27:44;17.67;;;9.30;;
47089;SDS011;32840;52.516;13.294;2024-01-15T01:30:29;23.08;;;10.55;;
47089;SDS011;32840;52.516;13.294;2024-01-15T01:33:20;15.40;;;9.57;;
47089;SDS011;32840;52.516;13.294;2024-01-15T01:36:08;20.23;;;9.93;;
47089;SDS011;32840;52.516;13.294;2024-01-15T01:38:57;14.65;;;8.18;;
47089;SDS011;32840;52.516;13.294;2024-01-15T01:41:43;14.48;;;8.75;;
47089;SDS011;32840;52.516;13.294;2024-01-15T01:44:28;16.00;;;8.68;;
47089;SDS011;32840;52.516;13.294;2024-01-15T01:47:12;15.90;;;9.00;;
47089;SDS011;32840;52.516;13.294;2024-01-15T01:49:58;17.90;;;9.40;;
47089;SDS011;32840;52.516;13.294;2024-01-15T01:52:45;17.38;;;9.88;;
47089;SDS011;32840;52.516;13.294;2024-01-15T01:55:35;17.67;;;9.98;;
47089;SDS011;32840;52.516;13.294;2024-01-15T01:58:26;18.67;;;9.85;;
47089;SDS011;32840;52.516;13.294;2024-01-15T02:01:13;17.38;;;9.52;;
47089;SDS011;32840;52.516;13.294;2024-01-15T02:03:59;16.17;;;8.93;;
47089;SDS011;32840;52.516;13.294;2024-01-15T02:06:48;19.33;;;8.93;;
47089;SDS011;32840;52.516;13.294;2024-01-15T02:09:33;15.75;;;8.88;;
47089;SDS011;32840;52.516;13.294;2024-01-15T02:12:21;18.85;;;8.80;;
47089;SDS011;32840;52.516;13.294;2024-01-15T02:15:06;19.65;;;8.98;;
47089;SDS011;32840;52.516;13.294;2024-01-15T02:18:04;13.77;;;7.65;;
47089;SDS011;32840;52.516;13.294;2024-01-15T02:20:52;18.65;;;7.85;;
47089;SDS011;32840;52.516;13.294;2024-01-15T02:23:38;14.52;;;7.60;;
47089;SDS011;32840;52.516;13.294;2024-01-15T02:26:23;15.80;;;7.45;;
47089;SDS011;32840;52.516;13.294;2024-01-15T02:29:08;12.57;;;7.15;;
47089;SDS011;32840;52.516;13.294;2024-01-15T02:31:53;15.25;;;7.40;;
47089;SDS011;32840;52.516;13.294;2024-01-15T02:34:38;14.93;;;6.68;;
47089;SDS011;32840;52.516;13.294;2024-01-15T02:37:23;13.63;;;7.07;;
47089;SDS011;32840;52.516;13.294;2024-01-15T02:40:08;14.73;;;6.90;;
47089;SDS011;32840;52.516;13.294;2024-01-15T02:42:53;13.35;;;7.03;;
47089;SDS011;32840;52.516;13.294;2024-01-15T02:45:38;11.32;;;6.35;;
47089;SDS011;32840;52.516;13.294;2024-01-15T02:48:24;16.42;;;6.30;;
47089;SDS011;32840;52.516;13.294;2024-01-15T02:51:09;14.35;;;6.72;;
47089;SDS011;32840;52.516;13.294;2024-01-15T02:53:55;15.57;;;6.32;;
47089;SDS011;32840;52.516;13.294;2024-01-15T02:56:40;12.05;;;6.55;;
47089;SDS011;32840;52.516;13.294;2024-01-15T02:59:25;12.82;;;6.35;;
47089;SDS011;32840;52.516;13.294;2024-01-15T03:02:09;12.60;;;6.32;;
47089;SDS011;32840;52.516;13.294;2024-01-15T03:04:54;12.10;;;6.30;;
47089;SDS011;32840;52.516;13.294;2024-01-15T03:07:40;12.63;;;6.97;;
47089;SDS011;32840;52.516;13.294;2024-01-15T03:10:26;12.13;;;6.30;;
47089;SDS011;32840;52.516;13.294;2024-01-15T03:13:11;14.35;;;6.13;;
47089;SDS011;32840;52.516;13.294;2024-01-15T03:15:56;14.52;;;6.30;;
47089;SDS011;32840;52.516;13.294;2024-01-15T03:18:41;11.45;;;6.53;;
47089;SDS011;32840;52.516;13.294;2024-01-15T03:21:26;10.93;;;6.50;;
47089;SDS011;32840;52.516;13.294;2024-01-15T03:24:11;13.85;;;6.40;;
47089;SDS011;32840;52.516;13.294;2024-01-15T03:26:56;12.05;;;5.47;;
47089;SDS011;32840;52.516;13.294;2024-01-15T03:29:42;10.73;;;5.60;;
47089;SDS011;32840;52.516;13.294;2024-01-15T03:32:26;11.80;;;5.93;;
47089;SDS011;32840;52.516;13.294;2024-01-15T03:35:11;13.45;;;6.35;;
47089;SDS011;32840;52.516;13.294;2024-01-15T03:37:56;14.65;;;6.32;;
47089;SDS011;32840;52.516;13.294;2024-01-15T03:40:41;11.07;;;5.75;;
47089;SDS011;32840;52.516;13.294;2024-01-15T03:43:27;10.18;;;5.57;;
47089;SDS011;32840;52.516;13.294;2024-01-15T03:46:12;11.85;;;5.65;;
47089;SDS011;32840;52.516;13.294;2024-01-15T03:48:58;12.80;;;5.88;;
47089;SDS011;32840;52.516;13.294;2024-01-15T03:51:42;13.90;;;5.65;;
47089;SDS011;32840;52.516;13.294;2024-01-15T03:54:27;12.02;;;5.55;;
47089;SDS011;32840;52.516;13.294;2024-01-15T03:57:12;10.52;;;5.05;;
47089;SDS011;32840;52.516;13.294;2024-01-15T03:59:57;10.02;;;5.32;;
47089;SDS011;32840;52.516;13.294;2024-01-15T04:02:42;11.18;;;4.80;;
47089;SDS011;32840;52.516;13.294;2024-01-15T04:05:29;11.07;;;5.20;;
47089;SDS011;32840;52.516;13.294;2024-01-15T04:08:14;15.05;;;5.57;;
47089;SDS011;32840;52.516;13.294;2024-01-15T04:10:59;18.77;;;5.30;;
47089;SDS011;32840;52.516;13.294;2024-01-15T04:13:43;12.20;;;5.10;;
47089;SDS011;32840;52.516;13.294;2024-01-15T04:16:28;12.63;;;5.32;;
47089;SDS011;32840;52.516;13.294;2024-01-15T04:19:15;9.63;;;5.15;;
47089;SDS011;32840;52.516;13.294;2024-01-15T04:22:00;11.23;;;5.25;;
47089;SDS011;32840;52.516;13.294;2024-01-15T04:24:45;9.80;;;4.60;;
47089;SDS011;32840;52.516;13.294;2024-01-15T04:27:30;12.15;;;4.20;;
47089;SDS011;32840;52.516;13.294;2024-01-15T04:30:14;7.85;;;3.83;;
47089;SDS011;32840;52.516;13.294;2024-01-15T04:33:01;9.98;;;4.85;;
47089;SDS011;32840;52.516;13.294;2024-01-15T04:35:45;12.40;;;3.97;;
47089;SDS011;32840;52.516;13.294;2024-01-15T04:38:30;10.15;;;4.60;;
47089;SDS011;32840;52.516;13.294;2024-01-15T04:41:16;7.53;;;3.45;;
47089;SDS011;32840;52.516;13.294;2024-01-15T04:44:02;9.02;;;3.85;;
47089;SDS011;32840;52.516;13.294;2024-01-15T04:46:47;9.70;;;4.00;;
47089;SDS011;32840;52.516;13.294;2024-01-15T04:49:32;10.43;;;3.92;;
47089;SDS011;32840;52.516;13.294;2024-01-15T04:52:17;9.45;;;3.65;;
47089;SDS011;32840;52.516;13.294;2024-01-15T04:55:02;13.18;;;3.42;;
47089;SDS011;32840;52.516;13.294;2024-01-15T04:57:48;10.65;;;3.25;;
47089;SDS011;32840;52.516;13.294;2024-01-15T05:00:34;13.00;;;2.80;;
47089;SDS011;32840;52.516;13.294;2024-01-15T05:03:19;9.90;;;3.35;;
47089;SDS011;32840;52.516;13.294;2024-01-15T05:06:05;11.45;;;3.15;;
47089;SDS011;32840;52.516;13.294;2024-01-15T05:08:51;7.80;;;2.70;;
47089;SDS011;32840;52.516;13.294;2024-01-15T05:11:36;10.75;;;3.13;;
47089;SDS011;32840;52.516;13.294;2024-01-15T05:14:21;10.02;;;3.92;;
47089;SDS011;32840;52.516;13.294;2024-01-15T05:17:11;8.45;;;2.53;;
47089;SDS011;32840;52.516;13.294;2024-01-15T05:19:56;9.85;;;2.95;;
47089;SDS011;32840;52.516;13.294;2024-01-15T05:22:43;11.48;;;2.88;;
47089;SDS011;32840;52.516;13.294;2024-01-15T05:25:29;10.48;;;3.25;;
47089;SDS011;32840;52.516;13.294;2024-01-15T05:28:18;11.97;;;3.37;;
47089;SDS011;32840;52.516;13.294;2024-01-15T05:31:03;7.32;;;2.28;;
47089;SDS011;32840;52.516;13.294;2024-01-15T05:33:52;12.77;;;2.75;;
47089;SDS011;32840;52.516;13.294;2024-01-15T05:36:37;8.35;;;2.28;;
47089;SDS011;32840;52.516;13.294;2024-01-15T05:39:22;7.97;;;2.65;;
47089;SDS011;32840;52.516;13.294;2024-01-15T05:42:09;6.43;;;3.33;;
47089;SDS011;32840;52.516;13.294;2024-01-15T05:44:55;7.07;;;2.13;;
47089;SDS011;32840;52.516;13.294;2024-01-15T05:47:40;8.18;;;2.45;;
47089;SDS011;32840;52.516;13.294;2024-01-15T05:50:24;11.23;;;2.58;;
47089;SDS011;32840;52.516;13.294;2024-01-15T05:53:13;5.70;;;1.98;;
47089;SDS011;32840;52.516;13.294;2024-01-15T05:55:59;8.38;;;2.03;;
47089;SDS011;32840;52.516;13.294;2024-01-15T05:58:45;7.00;;;2.28;;
47089;SDS011;32840;52.516;13.294;2024-01-15T06:01:30;8.15;;;2.25;;
47089;SDS011;32840;52.516;13.294;2024-01-15T06:04:15;8.63;;;2.63;;
47089;SDS011;32840;52.516;13.294;2024-01-15T06:07:00;9.10;;;2.33;;
47089;SDS011;32840;52.516;13.294;2024-01-15T06:09:44;6.90;;;2.22;;
47089;SDS011;32840;52.516;13.294;2024-01-15T06:12:29;7.85;;;1.67;;
47089;SDS011;32840;52.516;13.294;2024-01-15T06:15:14;8.23;;;2.00;;
47089;SDS011;32840;52.516;13.294;2024-01-15T06:17:59;10.13;;;2.50;;
47089;SDS011;32840;52.516;13.294;2024-01-15T06:20:44;8.60;;;2.05;;
47089;SDS011;32840;52.516;13.294;2024-01-15T06:23:29;12.98;;;2.40;;
47089;SDS011;32840;52.516;13.294;2024-01-15T06:26:14;13.55;;;2.35;;
47089;SDS011;32840;52.516;13.294;2024-01-15T06:28:59;7.10;;;2.08;;
47089;SDS011;32840;52.516;13.294;2024-01-15T06:31:44;8.52;;;1.95;;
47089;SDS011;32840;52.516;13.294;2024-01-15T06:34:29;14.60;;;1.83;;
47089;SDS011;32840;52.516;13.294;2024-01-15T06:37:14;8.55;;;2.13;;
47089;SDS011;32840;52.516;13.294;2024-01-15T06:39:58;9.40;;;1.67;;
47089;SDS011;32840;52.516;13.294;2024-01-15T06:42:43;14.02;;;1.67;;
47089;SDS011;32840;52.516;13.294;2024-01-15T06:45:28;9.18;;;1.92;;
47089;SDS011;32840;52.516;13.294;2024-01-15T06:48:14;7.05;;;1.73;;
47089;SDS011;32840;52.516;13.294;2024-01-15T06:51:00;7.85;;;1.55;;
47089;SDS011;32840;52.516;13.294;2024-01-15T06:53:45;8.65;;;1.85;;
47089;SDS011;32840;52.516;13.294;2024-01-15T06:56:33;9.25;;;1.90;;
47089;SDS011;32840;52.516;13.294;2024-01-15T06:59:21;11.05;;;2.17;;
47089;SDS011;32840;52.516;13.294;2024-01-15T07:02:10;10.25;;;2.03;;
47089;SDS011;32840;52.516;13.294;2024-01-15T07:04:57;10.60;;;1.65;;
47089;SDS011;32840;52.516;13.294;2024-01-15T07:07:42;8.02;;;1.17;;
47089;SDS011;32840;52.516;13.294;2024-01-15T07:10:27;8.23;;;2.03;;
47089;SDS011;32840;52.516;13.294;2024-01-15T07:13:12;13.20;;;1.90;;
47089;SDS011;32840;52.516;13.294;2024-01-15T07:15:57;6.07;;;1.60;;
47089;SDS011;32840;52.516;13.294;2024-01-15T07:18:42;8.35;;;1.52;;
47089;SDS011;32840;52.516;13.294;2024-01-15T07:21:27;11.02;;;1.42;;
47089;SDS011;32840;52.516;13.294;2024-01-15T07:24:12;9.30;;;2.33;;
47089;SDS011;32840;52.516;13.294;2024-01-15T07:26:57;8.80;;;1.30;;
47089;SDS011;32840;52.516;13.294;2024-01-15T07:29:42;9.45;;;1.95;;
47089;SDS011;32840;52.516;13.294;2024-01-15T07:32:27;10.73;;;1.92;;
47089;SDS011;32840;52.516;13.294;2024-01-15T07:35:16;15.38;;;3.70;;
47089;SDS011;32840;52.516;13.294;2024-01-15T07:38:01;11.80;;;1.60;;
47089;SDS011;32840;52.516;13.294;2024-01-15T07:40:46;9.77;;;2.25;;
47089;SDS011;32840;52.516;13.294;2024-01-15T07:43:33;11.82;;;2.22;;
47089;SDS011;32840;52.516;13.294;2024-01-15T07:46:18;11.75;;;1.65;;
47089;SDS011;32840;52.516;13.294;2024-01-15T07:49:03;13.95;;;2.22;;
47089;SDS011;32840;52.516;13.294;2024-01-15T07:51:49;11.95;;;2.38;;
47089;SDS011;32840;52.516;13.294;2024-01-15T07:54:36;10.50;;;2.00;;
47089;SDS011;32840;52.516;13.294;2024-01-15T07:57:22;11.38;;;2.13;;
47089;SDS011;32840;52.516;13.294;2024-01-15T08:00:06;12.25;;;2.00;;
47089;SDS011;32840;52.516;13.294;2024-01-15T08:02:54;7.15;;;1.42;;
47089;SDS011;32840;52.516;13.294;2024-01-15T08:05:39;11.57;;;2.65;;
47089;SDS011;32840;52.516;13.294;2024-01-15T08:08:31;9.18;;;1.77;;
47089;SDS011;32840;52.516;13.294;2024-01-15T08:11:16;13.43;;;1.58;;
47089;SDS011;32840;52.516;13.294;2024-01-15T08:14:01;7.57;;;1.80;;
47089;SDS011;32840;52.516;13.294;2024-01-15T08:16:47;18.35;;;2.75;;
47089;SDS011;32840;52.516;13.294;2024-01-15T08:19:32;16.50;;;2.72;;
47089;SDS011;32840;52.516;13.294;2024-01-15T08:22:17;12.38;;;2.92;;
47089;SDS011;32840;52.516;13.294;2024-01-15T08:25:02;9.88;;;2.22;;
47089;SDS011;32840;52.516;13.294;2024-01-15T08:27:47;6.60;;;1.98;;
47089;SDS011;32840;52.516;13.294;2024-01-15T08:30:32;10.23;;;1.80;;
47089;SDS011;32840;52.516;13.294;2024-01-15T08:33:17;8.60;;;1.50;;
47089;SDS011;32840;52.516;13.294;2024-01-15T08:36:02;9.63;;;1.50;;
47089;SDS011;32840;52.516;13.294;2024-01-15T08:38:47;4.68;;;1.50;;
47089;SDS011;32840;52.516;13.294;2024-01-15T08:41:32;5.82;;;1.20;;
47089;SDS011;32840;52.516;13.294;2024-01-15T08:44:17;4.22;;;1.20;;
47089;SDS011;32840;52.516;13.294;2024-01-15T08:47:02;8.02;;;1.65;;
47089;SDS011;32840;52.516;13.294;2024-01-15T08:49:47;10.43;;;1.90;;
47089;SDS011;32840;52.516;13.294;2024-01-15T08:52:32;7.10;;;1.65;;
47089;SDS011;32840;52.516;13.294;2024-01-15T08:55:17;6.80;;;1.38;;
47089;SDS011;32840;52.516;13.294;2024-01-15T08:58:03;12.27;;;1.83;;
47089;SDS011;32840;52.516;13.294;2024-01-15T09:00:48;10.27;;;1.85;;
47089;SDS011;32840;52.516;13.294;2024-01-15T09:03:35;9.88;;;1.50;;
47089;SDS011;32840;52.516;13.294;2024-01-15T09:06:21;9.15;;;2.13;;
47089;SDS011;32840;52.516;13.294;2024-01-15T09:09:09;8.40;;;1.85;;
47089;SDS011;32840;52.516;13.294;2024-01-15T09:11:57;8.38;;;1.90;;
47089;SDS011;32840;52.516;13.294;2024-01-15T09:14:58;12.90;;;1.83;;
47089;SDS011;32840;52.516;13.294;2024-01-15T09:17:48;8.47;;;1.90;;
47089;SDS011;32840;52.516;13.294;2024-01-15T09:20:33;10.85;;;1.98;;
47089;SDS011;32840;52.516;13.294;2024-01-15T09:23:45;12.52;;;2.30;;
47089;SDS011;32840;52.516;13.294;2024-01-15T09:26:44;8.70;;;1.83;;
47089;SDS011;32840;52.516;13.294;2024-01-15T09:29:29;13.82;;;2.35;;
47089;SDS011;32840;52.516;13.294;2024-01-15T09:32:14;8.80;;;1.60;;
47089;SDS011;32840;52.516;13.294;2024-01-15T09:35:00;7.50;;;1.38;;
47089;SDS011;32840;52.516;13.294;2024-01-15T09:37:44;11.20;;;1.50;;
47089;SDS011;32840;52.516;13.294;2024-01-15T09:40:31;6.65;;;1.40;;
47089;SDS011;32840;52.516;13.294;2024-01-15T09:43:17;8.43;;;1.67;;
47089;SDS011;32840;52.516;13.294;2024-01-15T09:46:03;8.30;;;2.50;;
47089;SDS011;32840;52.516;13.294;2024-01-15T09:48:48;8.05;;;1.63;;
47089;SDS011;32840;52.516;13.294;2024-01-15T09:51:34;6.93;;;1.50;;
47089;SDS011;32840;52.516;13.294;2024-01-15T09:54:20;7.45;;;1.95;;
47089;SDS011;32840;52.516;13.294;2024-01-15T09:57:05;6.55;;;1.83;;
47089;SDS011;32840;52.516;13.294;2024-01-15T09:59:50;9.02;;;1.67;;
47089;SDS011;32840;52.516;13.294;2024-01-15T10:02:38;6.63;;;2.17;;
47089;SDS011;32840;52.516;13.294;2024-01-15T10:05:24;10.45;;;1.88;;
47089;SDS011;32840;52.516;13.294;2024-01-15T10:08:09;6.18;;;1.80;;
47089;SDS011;32840;52.516;13.294;2024-01-15T10:10:55;4.38;;;1.55;;
47089;SDS011;32840;52.516;13.294;2024-01-15T10:13:40;8.57;;;1.88;;
47089;SDS011;32840;52.516;13.294;2024-01-15T10:16:29;7.30;;;1.70;;
47089;SDS011;32840;52.516;13.294;2024-01-15T10:19:14;5.90;;;1.52;;
47089;SDS011;32840;52.516;13.294;2024-01-15T10:21:59;3.45;;;1.08;;
47089;SDS011;32840;52.516;13.294;2024-01-15T10:24:45;5.00;;;1.40;;
47089;SDS011;32840;52.516;13.294;2024-01-15T10:27:31;4.47;;;1.90;;
47089;SDS011;32840;52.516;13.294;2024-01-15T10:30:16;4.72;;;1.58;;
47089;SDS011;32840;52.516;13.294;2024-01-15T10:33:02;6.93;;;1.55;;
47089;SDS011;32840;52.516;13.294;2024-01-15T10:35:48;9.32;;;1.45;;
47089;SDS011;32840;52.516;13.294;2024-01-15T10:38:32;6.40;;;1.58;;
47089;SDS011;32840;52.516;13.294;2024-01-15T10:41:17;4.63;;;1.33;;
47089;SDS011;32840;52.516;13.294;2024-01-15T10:44:02;6.88;;;1.50;;
47089;SDS011;32840;52.516;13.294;2024-01-15T10:46:49;4.75;;;1.40;;
47089;SDS011;32840;52.516;13.294;2024-01-15T10:49:35;3.95;;;1.27;;
47089;SDS011;32840;52.516;13.294;2024-01-15T10:52:19;7.88;;;1.77;;
47089;SDS011;32840;52.516;13.294;2024-01-15T10:55:09;4.97;;;1.38;;
47089;SDS011;32840;52.516;13.294;2024-01-15T10:57:54;7.43;;;1.52;;
47089;SDS011;32840;52.516;13.294;2024-01-15T11:00:40;5.05;;;1.20;;
47089;SDS011;32840;52.516;13.294;2024-01-15T11:03:26;6.40;;;1.02;;
47089;SDS011;32840;52.516;13.294;2024-01-15T11:06:17;5.38;;;1.15;;
47089;SDS011;32840;52.516;13.294;2024-01-15T11:09:03;4.13;;;1.08;;
47089;SDS011;32840;52.516;13.294;2024-01-15T11:11:50;3.90;;;1.55;;
47089;SDS011;32840;52.516;13.294;2024-01-15T11:14:40;2.22;;;0.93;;
47089;SDS011;32840;52.516;13.294;2024-01-15T11:17:28;6.60;;;1.10;;
47089;SDS011;32840;52.516;13.294;2024-01-15T11:21:07;6.40;;;1.70;;
47089;SDS011;32840;52.516;13.294;2024-01-15T11:24:00;2.50;;;1.10;;
47089;SDS011;32840;52.516;13.294;2024-01-15T11:26:46;4.93;;;1.40;;
47089;SDS011;32840;52.516;13.294;2024-01-15T11:29:31;4.15;;;1.65;;
47089;SDS011;32840;52.516;13.294;2024-01-15T11:32:23;3.42;;;1.35;;
47089;SDS011;32840;52.516;13.294;2024-01-15T11:35:17;2.03;;;1.10;;
47089;SDS011;32840;52.516;13.294;2024-01-15T11:38:04;5.05;;;1.90;;
47089;SDS011;32840;52.516;13.294;2024-01-15T11:40:50;5.22;;;2.38;;
47089;SDS011;32840;52.516;13.294;2024-01-15T11:43:38;5.15;;;1.45;;
47089;SDS011;32840;52.516;13.294;2024-01-15T11:46:23;4.63;;;1.23;;
47089;SDS011;32840;52.516;13.294;2024-01-15T11:49:14;5.43;;;1.45;;
47089;SDS011;32840;52.516;13.294;2024-01-15T11:52:12;5.93;;;1.70;;
47089;SDS011;32840;52.516;13.294;2024-01-15T11:55:10;3.45;;;1.52;;
47089;SDS011;32840;52.516;13.294;2024-01-15T11:57:55;6.97;;;2.28;;
47089;SDS011;32840;52.516;13.294;2024-01-15T12:00:43;4.18;;;1.55;;
47089;SDS011;32840;52.516;13.294;2024-01-15T12:03:33;4.10;;;1.60;;
47089;SDS011;32840;52.516;13.294;2024-01-15T12:06:18;4.05;;;2.10;;
47089;SDS011;32840;52.516;13.294;2024-01-15T12:09:07;4.25;;;1.70;;
47089;SDS011;32840;52.516;13.294;2024-01-15T12:11:57;2.92;;;1.20;;
47089;SDS011;32840;52.516;13.294;2024-01-15T12:15:00;4.13;;;1.50;;
47089;SDS011;32840;52.516;13.294;2024-01-15T12:17:45;4.78;;;1.25;;
47089;SDS011;32840;52.516;13.294;2024-01-15T12:20:31;3.05;;;1.52;;
47089;SDS011;32840;52.516;13.294;2024-01-15T12:23:19;3.47;;;1.30;;
47089;SDS011;32840;52.516;13.294;2024-01-15T12:26:04;5.03;;;1.77;;
47089;SDS011;32840;52.516;13.294;2024-01-15T12:28:50;5.47;;;1.98;;
47089;SDS011;32840;52.516;13.294;2024-01-15T12:31:35;5.03;;;2.53;;
47089;SDS011;32840;52.516;13.294;2024-01-15T12:34:20;3.83;;;1.70;;
47089;SDS011;32840;52.516;13.294;2024-01-15T12:37:06;4.32;;;1.60;;
47089;SDS011;32840;52.516;13.294;2024-01-15T12:39:52;1.75;;;1.15;;
47089;SDS011;32840;52.516;13.294;2024-01-15T12:42:40;2.42;;;1.10;;
47089;SDS011;32840;52.516;13.294;2024-01-15T12:45:26;3.08;;;1.23;;
47089;SDS011;32840;52.516;13.294;2024-01-15T12:48:11;3.05;;;1.33;;
47089;SDS011;32840;52.516;13.294;2024-01-15T12:50:57;3.40;;;1.67;;
47089;SDS011;32840;52.516;13.294;2024-01-15T12:53:42;3.28;;;1.38;;
47089;SDS011;32840;52.516;13.294;2024-01-15T12:56:27;2.05;;;1.02;;
47089;SDS011;32840;52.516;13.294;2024-01-15T12:59:12;3.63;;;1.20;;
47089;SDS011;32840;52.516;13.294;2024-01-15T13:01:57;3.13;;;1.60;;
47089;SDS011;32840;52.516;13.294;2024-01-15T13:04:42;2.60;;;1.17;;
47089;SDS011;32840;52.516;13.294;2024-01-15T13:07:27;3.20;;;1.30;;
47089;SDS011;32840;52.516;13.294;2024-01-15T13:10:12;4.80;;;1.70;;
47089;SDS011;32840;52.516;13.294;2024-01-15T13:13:01;2.00;;;1.30;;
47089;SDS011;32840;52.516;13.294;2024-01-15T13:15:46;4.75;;;1.15;;
47089;SDS011;32840;52.516;13.294;2024-01-15T13:18:31;3.35;;;1.42;;
47089;SDS011;32840;52.516;13.294;2024-01-15T13:21:16;2.38;;;1.15;;
47089;SDS011;32840;52.516;13.294;2024-01-15T13:24:01;4.78;;;1.52;;
47089;SDS011;32840;52.516;13.294;2024-01-15T13:26:47;3.47;;;1.30;;
47089;SDS011;32840;52.516;13.294;2024-01-15T13:29:32;5.35;;;1.70;;
47089;SDS011;32840;52.516;13.294;2024-01-15T13:32:25;4.13;;;1.75;;
47089;SDS011;32840;52.516;13.294;2024-01-15T13:35:12;4.13;;;1.77;;
47089;SDS011;32840;52.516;13.294;2024-01-15T13:37:58;2.80;;;1.25;;
47089;SDS011;32840;52.516;13.294;2024-01-15T13:40:45;7.18;;;2.63;;
47089;SDS011;32840;52.516;13.294;2024-01-15T13:43:31;7.72;;;1.65;;
47089;SDS011;32840;52.516;13.294;2024-01-15T13:46:20;2.92;;;1.02;;
47089;SDS011;32840;52.516;13.294;2024-01-15T13:49:10;4.28;;;1.90;;
47089;SDS011;32840;52.516;13.294;2024-01-15T13:51:58;4.72;;;1.90;;
47089;SDS011;32840;52.516;13.294;2024-01-15T13:54:43;5.78;;;1.63;;
47089;SDS011;32840;52.516;13.294;2024-01-15T13:57:31;11.13;;;2.30;;
47089;SDS011;32840;52.516;13.294;2024-01-15T14:00:18;5.60;;;2.95;;
47089;SDS011;32840;52.516;13.294;2024-01-15T14:03:06;4.30;;;1.60;;
47089;SDS011;32840;52.516;13.294;2024-01-15T14:05:53;5.75;;;1.67;;
47089;SDS011;32840;52.516;13.294;2024-01-15T14:08:41;6.00;;;1.48;;
47089;SDS011;32840;52.516;13.294;2024-01-15T14:11:25;7.50;;;1.73;;
47089;SDS011;32840;52.516;13.294;2024-01-15T14:14:13;3.85;;;1.30;;
47089;SDS011;32840;52.516;13.294;2024-01-15T14:17:05;3.17;;;1.42;;
47089;SDS011;32840;52.516;13.294;2024-01-15T14:19:50;4.30;;;1.70;;
47089;SDS011;32840;52.516;13.294;2024-01-15T14:22:35;2.90;;;1.55;;
47089;SDS011;32840;52.516;13.294;2024-01-15T14:25:20;5.30;;;1.67;;
47089;SDS011;32840;52.516;13.294;2024-01-15T14:28:09;5.72;;;1.63;;
47089;SDS011;32840;52.516;13.294;2024-01-15T14:30:57;2.40;;;0.90;;
47089;SDS011;32840;52.516;13.294;2024-01-15T14:33:49;7.28;;;2.90;;
47089;SDS011;32840;52.516;13.294;2024-01-15T14:36:35;8.07;;;1.88;;
47089;SDS011;32840;52.516;13.294;2024-01-15T14:39:27;6.07;;;1.60;;
47089;SDS011;32840;52.516;13.294;2024-01-15T14:42:13;5.55;;;1.80;;
47089;SDS011;32840;52.516;13.294;2024-01-15T14:45:01;6.60;;;1.27;;
47089;SDS011;32840;52.516;13.294;2024-01-15T14:47:50;8.57;;;1.52;;
47089;SDS011;32840;52.516;13.294;2024-01-15T14:50:35;8.85;;;2.08;;
47089;SDS011;32840;52.516;13.294;2024-01-15T14:53:20;7.10;;;2.05;;
47089;SDS011;32840;52.516;13.294;2024-01-15T14:56:11;7.30;;;1.65;;
47089;SDS011;32840;52.516;13.294;2024-01-15T14:59:01;7.45;;;2.58;;
47089;SDS011;32840;52.516;13.294;2024-01-15T15:01:49;7.17;;;1.70;;
47089;SDS011;32840;52.516;13.294;2024-01-15T15:04:34;5.72;;;1.40;;
47089;SDS011;32840;52.516;13.294;2024-01-15T15:07:22;7.60;;;2.03;;
47089;SDS011;32840;52.516;13.294;2024-01-15T15:10:07;6.85;;;1.88;;
47089;SDS011;32840;52.516;13.294;2024-01-15T15:12:55;6.75;;;1.55;;
47089;SDS011;32840;52.516;13.294;2024-01-15T15:15:41;9.50;;;3.50;;
47089;SDS011;32840;52.516;13.294;2024-01-15T15:18:29;6.65;;;1.70;;
47089;SDS011;32840;52.516;13.294;2024-01-15T15:21:17;6.20;;;1.88;;
47089;SDS011;32840;52.516;13.294;2024-01-15T15:24:03;5.70;;;1.85;;
47089;SDS011;32840;52.516;13.294;2024-01-15T15:26:48;9.00;;;1.77;;
47089;SDS011;32840;52.516;13.294;2024-01-15T15:29:33;8.07;;;2.38;;
47089;SDS011;32840;52.516;13.294;2024-01-15T15:32:22;6.72;;;1.88;;
47089;SDS011;32840;52.516;13.294;2024-01-15T15:35:13;5.13;;;1.73;;
47089;SDS011;32840;52.516;13.294;2024-01-15T15:38:05;6.35;;;1.88;;
47089;SDS011;32840;52.516;13.294;2024-01-15T15:40:51;6.50;;;2.03;;
47089;SDS011;32840;52.516;13.294;2024-01-15T15:43:41;5.63;;;2.40;;
47089;SDS011;32840;52.516;13.294;2024-01-15T15:46:26;4.43;;;1.65;;
47089;SDS011;32840;52.516;13.294;2024-01-15T15:49:13;4.88;;;1.60;;
47089;SDS011;32840;52.516;13.294;2024-01-15T15:51:59;3.05;;;1.48;;
47089;SDS011;32840;52.516;13.294;2024-01-15T15:54:43;7.97;;;1.83;;
47089;SDS011;32840;52.516;13.294;2024-01-15T15:57:28;6.20;;;1.67;;
47089;SDS011;32840;52.516;13.294;2024-01-15T16:00:14;4.50;;;1.50;;
47089;SDS011;32840;52.516;13.294;2024-01-15T16:02:58;28.40;;;17.75;;
47089;SDS011;32840;52.516;13.294;2024-01-15T16:05:44;4.57;;;2.00;;
47089;SDS011;32840;52.516;13.294;2024-01-15T16:08:29;6.22;;;1.75;;
47089;SDS011;32840;52.516;13.294;2024-01-15T16:11:23;4.28;;;2.20;;
47089;SDS011;32840;52.516;13.294;2024-01-15T16:14:11;7.13;;;2.88;;
47089;SDS011;32840;52.516;13.294;2024-01-15T16:17:10;4.20;;;1.92;;
47089;SDS011;32840;52.516;13.294;2024-01-15T16:20:34;3.90;;;1.92;;
47089;SDS011;32840;52.516;13.294;2024-01-15T16:23:27;9.20;;;2.47;;
47089;SDS011;32840;52.516;13.294;2024-01-15T16:26:34;4.97;;;2.08;;